createdAt,value
2022-11-16T00:02:18.730Z,6.97
2022-11-16T00:04:45.518Z,7.13
2022-11-16T00:07:12.250Z,7.40
2022-11-16T00:09:38.930Z,7.40
2022-11-16T00:12:06.814Z,7.63
2022-11-16T00:14:34.538Z,7.77
2022-11-16T00:17:01.718Z,6.63
2022-11-16T00:19:28.739Z,7.37
2022-11-16T00:21:56.139Z,7.80
2022-11-16T00:24:23.554Z,8.30
2022-11-16T00:26:50.773Z,7.60
2022-11-16T00:29:18.784Z,7.20
2022-11-16T00:31:46.385Z,8.47
2022-11-16T00:34:13.046Z,8.13
2022-11-16T00:36:39.659Z,8.53
2022-11-16T00:39:06.388Z,8.00
2022-11-16T00:41:32.994Z,8.37
2022-11-16T00:43:59.566Z,8.10
2022-11-16T00:46:26.110Z,8.03
2022-11-16T00:48:52.802Z,5.67
2022-11-16T00:51:19.424Z,6.50
2022-11-16T00:53:46.091Z,6.80
2022-11-16T00:56:12.656Z,6.90
2022-11-16T00:58:43.204Z,6.50
2022-11-16T01:01:11.781Z,7.30
2022-11-16T01:03:38.756Z,7.00
2022-11-16T01:06:06.523Z,8.30
2022-11-16T01:08:34.067Z,8.17
2022-11-16T01:11:21.073Z,7.13
2022-11-16T01:13:48.391Z,6.60
2022-11-16T01:16:16.212Z,6.60
2022-11-16T01:18:43.664Z,7.50
2022-11-16T01:21:10.268Z,7.13
2022-11-16T01:23:37.040Z,7.00
2022-11-16T01:26:03.672Z,6.27
2022-11-16T01:28:34.172Z,6.97
2022-11-16T01:31:01.686Z,7.30
2022-11-16T01:33:30.892Z,6.67
2022-11-16T01:35:57.957Z,6.33
2022-11-16T01:38:29.506Z,6.27
2022-11-16T01:40:56.982Z,6.33
2022-11-16T01:43:25.439Z,5.83
2022-11-16T01:45:57.185Z,6.30
2022-11-16T01:48:25.917Z,5.70
2022-11-16T01:50:57.381Z,6.23
2022-11-16T01:53:24.846Z,5.90
2022-11-16T01:55:55.516Z,5.60
2022-11-16T01:58:29.984Z,5.50
2022-11-16T02:01:02.975Z,5.57
2022-11-16T02:03:38.245Z,4.40
2022-11-16T02:06:11.857Z,3.40
2022-11-16T02:09:05.659Z,2.00
2022-11-16T02:11:52.284Z,1.50
2022-11-16T02:14:33.192Z,3.40
2022-11-16T02:17:00.287Z,1.70
2022-11-16T02:19:54.760Z,1.10
2022-11-16T02:22:30.533Z,1.20
2022-11-16T02:25:05.464Z,1.50
2022-11-16T02:27:37.220Z,1.10
2022-11-16T02:30:05.053Z,1.17
2022-11-16T02:32:35.856Z,1.20
2022-11-16T02:35:14.852Z,1.10
2022-11-16T02:37:48.597Z,0.90
2022-11-16T02:40:17.290Z,1.00
2022-11-16T02:42:46.431Z,1.00
2022-11-16T02:45:15.522Z,1.10
2022-11-16T02:47:42.820Z,1.10
2022-11-16T02:50:11.434Z,1.47
2022-11-16T02:52:38.626Z,1.60
2022-11-16T02:55:08.693Z,1.60
2022-11-16T02:57:55.553Z,1.10
2022-11-16T03:00:24.052Z,0.83
2022-11-16T03:03:09.022Z,0.90
2022-11-16T03:05:41.247Z,0.80
2022-11-16T03:08:08.744Z,1.00
2022-11-16T03:10:57.439Z,0.80
2022-11-16T03:13:26.743Z,0.77
2022-11-16T03:15:54.810Z,0.90
2022-11-16T03:18:23.426Z,0.63
2022-11-16T03:20:52.905Z,0.90
2022-11-16T03:23:19.999Z,0.70
2022-11-16T03:25:51.730Z,1.33
2022-11-16T03:28:32.682Z,0.80
2022-11-16T03:31:06.097Z,0.93
2022-11-16T03:33:37.028Z,0.77
2022-11-16T03:36:18.034Z,0.90
2022-11-16T03:38:45.978Z,1.13
2022-11-16T03:41:14.526Z,0.83
2022-11-16T03:43:43.066Z,1.00
2022-11-16T03:46:10.176Z,1.00
2022-11-16T03:48:38.622Z,1.33
2022-11-16T03:51:12.326Z,1.00
2022-11-16T03:53:40.642Z,1.03
2022-11-16T03:56:09.123Z,1.00
2022-11-16T03:58:35.945Z,1.00
2022-11-16T04:01:03.715Z,0.83
2022-11-16T04:03:30.879Z,1.00
2022-11-16T04:06:16.591Z,1.10
2022-11-16T04:09:01.960Z,1.17
2022-11-16T04:11:48.232Z,1.30
2022-11-16T04:14:35.823Z,1.27
2022-11-16T04:17:21.248Z,1.60
2022-11-16T04:20:07.803Z,1.70
2022-11-16T04:22:56.582Z,2.23
2022-11-16T04:25:26.655Z,2.20
2022-11-16T04:28:13.319Z,2.27
2022-11-16T04:31:09.037Z,2.30
2022-11-16T04:33:56.474Z,2.40
2022-11-16T04:36:42.155Z,2.10
2022-11-16T04:39:10.114Z,2.93
2022-11-16T04:41:55.775Z,2.53
2022-11-16T04:44:27.309Z,2.63
2022-11-16T04:47:08.806Z,2.47
2022-11-16T04:49:38.083Z,2.53
2022-11-16T04:52:04.726Z,2.07
2022-11-16T04:54:33.122Z,2.00
2022-11-16T04:56:59.732Z,2.40
2022-11-16T04:59:26.376Z,2.07
2022-11-16T05:02:08.636Z,2.20
2022-11-16T05:04:42.905Z,1.70
2022-11-16T05:07:12.063Z,2.00
2022-11-16T05:09:42.993Z,2.50
2022-11-16T05:12:16.917Z,1.93
2022-11-16T05:14:45.415Z,2.03
2022-11-16T05:17:13.824Z,2.30
2022-11-16T05:19:59.848Z,2.13
2022-11-16T05:22:29.951Z,2.20
2022-11-16T05:24:57.829Z,2.47
2022-11-16T05:27:24.911Z,2.10
2022-11-16T05:29:52.102Z,2.97
2022-11-16T05:32:22.386Z,2.73
2022-11-16T05:34:49.854Z,2.70
2022-11-16T05:37:18.342Z,2.67
2022-11-16T05:39:46.165Z,3.03
2022-11-16T05:42:12.999Z,3.17
2022-11-16T05:44:39.611Z,2.93
2022-11-16T05:47:07.188Z,2.83
2022-11-16T05:49:33.858Z,3.17
2022-11-16T05:52:00.552Z,2.60
2022-11-16T05:54:28.936Z,3.50
2022-11-16T05:56:55.665Z,3.67
2022-11-16T05:59:23.817Z,3.40
2022-11-16T06:01:54.027Z,3.37
2022-11-16T06:04:24.577Z,4.20
2022-11-16T06:06:53.198Z,3.27
2022-11-16T06:09:19.959Z,4.37
2022-11-16T06:11:48.451Z,3.33
2022-11-16T06:14:15.870Z,2.43
2022-11-16T06:16:43.199Z,2.17
2022-11-16T06:19:11.002Z,2.87
2022-11-16T06:21:37.891Z,2.90
2022-11-16T06:24:09.594Z,6.70
2022-11-16T06:26:37.135Z,10.30
2022-11-16T06:29:04.455Z,18.40
2022-11-16T06:31:32.908Z,7.47
2022-11-16T06:34:01.658Z,5.43
2022-11-16T06:36:29.520Z,5.23
2022-11-16T06:38:58.960Z,3.60
2022-11-16T06:41:26.685Z,11.67
2022-11-16T06:43:53.480Z,3.73
2022-11-16T06:46:25.469Z,4.93
2022-11-16T06:48:52.936Z,3.50
2022-11-16T06:51:19.658Z,3.60
2022-11-16T06:56:28.560Z,4.13
2022-11-16T06:58:57.611Z,3.90
2022-11-16T07:01:26.809Z,3.73
2022-11-16T07:03:58.989Z,3.37
2022-11-16T07:06:26.205Z,3.20
2022-11-16T07:08:53.049Z,3.37
2022-11-16T07:11:24.403Z,3.80
2022-11-16T07:13:51.874Z,3.07
2022-11-16T07:16:18.561Z,2.97
2022-11-16T07:18:52.806Z,3.47
2022-11-16T07:21:19.592Z,3.10
2022-11-16T07:23:46.407Z,2.37
2022-11-16T07:26:18.165Z,2.83
2022-11-16T07:28:52.966Z,3.07
2022-11-16T07:31:22.090Z,2.93
2022-11-16T07:34:08.715Z,2.93
2022-11-16T07:36:53.658Z,3.37
2022-11-16T07:39:38.822Z,3.33
2022-11-16T07:42:26.645Z,3.30
2022-11-16T07:45:50.030Z,2.77
2022-11-16T07:48:47.075Z,2.90
2022-11-16T07:51:32.664Z,2.80
2022-11-16T07:54:28.470Z,3.10
2022-11-16T07:56:55.434Z,2.57
2022-11-16T07:59:23.188Z,2.50
2022-11-16T08:01:50.374Z,3.30
2022-11-16T08:04:17.614Z,2.50
2022-11-16T08:06:44.778Z,2.47
2022-11-16T08:09:11.535Z,2.80
2022-11-16T08:11:38.527Z,2.67
2022-11-16T08:14:05.642Z,3.00
2022-11-16T08:16:33.486Z,2.63
2022-11-16T08:19:08.107Z,2.17
2022-11-16T08:21:34.734Z,2.70
2022-11-16T08:24:01.997Z,2.30
2022-11-16T08:26:30.839Z,2.87
2022-11-16T08:29:03.719Z,2.33
2022-11-16T08:31:34.281Z,2.10
2022-11-16T08:34:16.558Z,2.17
2022-11-16T08:36:48.795Z,2.20
2022-11-16T08:39:17.278Z,2.00
2022-11-16T08:41:44.514Z,2.40
2022-11-16T08:44:11.849Z,2.20
2022-11-16T08:46:42.652Z,1.57
2022-11-16T08:49:35.110Z,2.10
2022-11-16T08:52:01.834Z,1.73
2022-11-16T08:54:30.173Z,1.90
2022-11-16T08:56:57.410Z,1.73
2022-11-16T08:59:24.075Z,1.87
2022-11-16T09:01:54.159Z,1.90
2022-11-16T09:04:20.823Z,1.93
2022-11-16T09:06:47.622Z,2.40
2022-11-16T09:09:14.335Z,1.83
2022-11-16T09:11:41.041Z,1.37
2022-11-16T09:14:07.584Z,1.80
2022-11-16T09:16:34.146Z,1.50
2022-11-16T09:19:01.108Z,1.20
2022-11-16T09:21:28.313Z,1.40
2022-11-16T09:23:55.954Z,1.73
2022-11-16T09:26:23.273Z,1.80
2022-11-16T09:28:55.247Z,1.77
2022-11-16T09:31:23.717Z,1.83
2022-11-16T09:33:50.678Z,2.10
2022-11-16T09:36:17.593Z,1.10
2022-11-16T09:44:27.745Z,2.00
2022-11-16T09:46:59.053Z,1.57
2022-11-16T09:49:28.958Z,1.23
2022-11-16T09:54:41.882Z,1.53
2022-11-16T09:57:12.661Z,1.30
2022-11-16T09:59:49.891Z,1.83
2022-11-16T10:02:28.407Z,1.60
2022-11-16T10:05:01.068Z,1.33
2022-11-16T10:07:31.632Z,1.67
2022-11-16T10:09:58.252Z,1.60
2022-11-16T10:12:33.736Z,1.20
2022-11-16T10:15:23.643Z,1.27
2022-11-16T10:18:15.937Z,1.70
2022-11-16T10:20:42.495Z,1.60
2022-11-16T10:23:15.736Z,1.20
2022-11-16T10:25:43.771Z,1.70
2022-11-16T10:28:21.579Z,1.20
2022-11-16T10:31:07.048Z,1.40
2022-11-16T10:33:37.137Z,1.40
2022-11-16T10:36:06.483Z,1.60
2022-11-16T10:38:33.244Z,1.73
2022-11-16T10:41:05.716Z,1.13
2022-11-16T10:43:32.877Z,1.40
2022-11-16T10:46:00.887Z,1.13
2022-11-16T10:48:41.293Z,1.17
2022-11-16T10:51:08.802Z,1.80
2022-11-16T10:53:39.913Z,1.20
2022-11-16T10:56:12.500Z,1.47
2022-11-16T10:58:49.187Z,1.20
2022-11-16T11:01:27.249Z,1.90
2022-11-16T11:03:53.853Z,1.33
2022-11-16T11:06:23.059Z,1.07
2022-11-16T11:08:50.350Z,2.00
2022-11-16T11:11:39.583Z,1.47
2022-11-16T11:14:11.530Z,1.60
2022-11-16T11:16:38.460Z,1.30
2022-11-16T11:19:23.947Z,1.50
2022-11-16T11:21:50.757Z,1.00
2022-11-16T11:24:43.432Z,1.17
2022-11-16T11:27:04.626Z,1.13
2022-11-16T11:29:32.709Z,0.97
2022-11-16T11:32:06.624Z,0.87
2022-11-16T11:34:39.344Z,0.93
2022-11-16T11:37:06.701Z,0.90
2022-11-16T11:39:37.148Z,1.10
2022-11-16T11:42:12.724Z,1.47
2022-11-16T11:44:54.836Z,1.10
2022-11-16T11:50:11.092Z,1.00
2022-11-16T11:52:57.962Z,1.67
2022-11-16T11:55:24.702Z,1.30
2022-11-16T11:57:53.786Z,1.00
2022-11-16T12:00:20.758Z,1.10
2022-11-16T12:03:20.839Z,1.37
2022-11-16T12:06:05.914Z,1.10
2022-11-16T12:08:40.979Z,1.03
2022-11-16T12:11:25.799Z,1.10
2022-11-16T12:14:17.525Z,1.20
2022-11-16T12:16:52.224Z,1.10
2022-11-16T12:19:37.601Z,1.10
2022-11-16T12:22:22.929Z,1.10
2022-11-16T12:24:49.504Z,1.10
2022-11-16T12:27:16.050Z,1.40
2022-11-16T12:29:48.671Z,1.27
2022-11-16T12:32:22.331Z,1.10
2022-11-16T12:34:55.446Z,1.37
2022-11-16T12:37:31.782Z,1.10
2022-11-16T12:40:16.993Z,0.90
2022-11-16T12:42:57.997Z,1.00
2022-11-16T12:45:30.545Z,1.20
2022-11-16T12:48:16.974Z,0.90
2022-11-16T12:50:43.546Z,0.93
2022-11-16T12:53:19.313Z,1.37
2022-11-16T12:56:06.121Z,1.13
2022-11-16T12:58:35.692Z,1.07
2022-11-16T13:01:21.830Z,1.20
2022-11-16T13:03:57.063Z,1.20
2022-11-16T13:06:28.823Z,1.30
2022-11-16T13:09:03.629Z,0.90
2022-11-16T13:11:49.082Z,1.20
2022-11-16T13:14:17.977Z,1.13
2022-11-16T13:16:46.263Z,0.90
2022-11-16T13:19:14.935Z,1.33
2022-11-16T13:22:05.657Z,1.13
2022-11-16T13:24:44.470Z,1.60
2022-11-16T13:27:11.043Z,1.10
2022-11-16T13:29:43.197Z,1.13
2022-11-16T13:32:15.839Z,1.00
2022-11-16T13:34:42.688Z,0.93
2022-11-16T13:37:28.095Z,1.10
2022-11-16T13:39:57.751Z,1.10
2022-11-16T13:42:24.679Z,1.30
2022-11-16T13:44:51.755Z,1.17
2022-11-16T13:47:20.723Z,0.90
2022-11-16T13:49:56.755Z,1.10
2022-11-16T13:52:26.631Z,1.20
2022-11-16T13:55:01.621Z,1.10
2022-11-16T13:57:32.192Z,1.20
2022-11-16T14:00:01.923Z,0.87
2022-11-16T14:02:36.332Z,0.93
2022-11-16T14:05:14.688Z,0.93
2022-11-16T14:07:47.470Z,1.00
2022-11-16T14:10:52.786Z,0.90
2022-11-16T14:13:39.865Z,1.67
2022-11-16T14:16:15.233Z,1.07
2022-11-16T14:18:42.554Z,1.47
2022-11-16T14:21:15.160Z,1.00
2022-11-16T14:23:50.180Z,1.10
2022-11-16T14:26:20.007Z,1.50
2022-11-16T14:29:07.263Z,1.30
2022-11-16T14:31:53.856Z,0.90
2022-11-16T14:34:22.473Z,1.20
2022-11-16T14:36:50.222Z,1.20
2022-11-16T14:39:43.560Z,1.43
2022-11-16T14:42:16.811Z,1.43
2022-11-16T14:44:43.788Z,1.40
2022-11-16T14:47:36.379Z,1.20
2022-11-16T14:50:04.988Z,1.30
2022-11-16T14:52:34.534Z,1.00
2022-11-16T14:55:03.583Z,1.20
2022-11-16T14:57:30.175Z,1.20
2022-11-16T15:00:09.366Z,1.07
2022-11-16T15:02:36.426Z,0.97
2022-11-16T15:05:03.273Z,0.77
2022-11-16T15:07:30.214Z,1.20
2022-11-16T15:09:59.339Z,1.20
2022-11-16T15:12:43.111Z,1.00
2022-11-16T15:15:12.771Z,1.10
2022-11-16T15:17:40.837Z,1.10
2022-11-16T15:20:13.670Z,1.17
2022-11-16T15:22:41.256Z,1.27
2022-11-16T15:25:23.138Z,1.13
2022-11-16T15:27:49.870Z,1.20
2022-11-16T15:30:21.112Z,1.40
2022-11-16T15:32:48.746Z,1.40
2022-11-16T15:35:20.500Z,1.37
2022-11-16T15:37:47.122Z,1.47
2022-11-16T15:40:14.235Z,1.30
2022-11-16T15:42:41.445Z,1.30
2022-11-16T15:45:14.477Z,1.57
2022-11-16T15:47:42.826Z,1.40
2022-11-16T15:50:15.612Z,1.60
2022-11-16T15:52:43.743Z,1.67
2022-11-16T15:55:20.664Z,1.60
2022-11-16T15:57:58.718Z,1.40
2022-11-16T16:00:25.965Z,3.73
2022-11-16T16:02:52.894Z,2.00
2022-11-16T16:05:23.978Z,1.90
2022-11-16T16:07:50.815Z,1.57
2022-11-16T16:10:20.624Z,1.40
2022-11-16T16:12:49.387Z,1.67
2022-11-16T16:15:23.170Z,1.70
2022-11-16T16:17:50.777Z,1.63
2022-11-16T16:20:18.613Z,2.17
2022-11-16T16:22:45.201Z,2.20
2022-11-16T16:25:28.505Z,2.07
2022-11-16T16:27:55.173Z,2.10
2022-11-16T16:30:21.914Z,2.17
2022-11-16T16:32:52.154Z,1.60
2022-11-16T16:35:20.145Z,1.50
2022-11-16T16:37:50.229Z,1.77
2022-11-16T16:40:17.857Z,1.70
2022-11-16T16:42:47.996Z,1.70
2022-11-16T16:45:24.350Z,2.40
2022-11-16T16:47:50.954Z,1.60
2022-11-16T16:50:17.612Z,2.23
2022-11-16T16:52:44.243Z,1.70
2022-11-16T16:55:10.785Z,1.77
2022-11-16T16:57:37.386Z,1.80
2022-11-16T17:00:04.161Z,1.83
2022-11-16T17:02:30.934Z,1.83
2022-11-16T17:04:57.526Z,2.17
2022-11-16T17:07:25.260Z,2.27
2022-11-16T17:09:51.998Z,2.80
2022-11-16T17:12:18.558Z,2.47
2022-11-16T17:14:51.391Z,2.50
2022-11-16T17:17:19.814Z,2.40
2022-11-16T17:19:46.495Z,3.30
2022-11-16T17:22:13.652Z,3.37
2022-11-16T17:24:40.399Z,2.70
2022-11-16T17:27:06.999Z,2.60
2022-11-16T17:29:33.683Z,2.37
2022-11-16T17:32:00.376Z,2.40
2022-11-16T17:34:27.044Z,2.40
2022-11-16T17:36:53.796Z,2.53
2022-11-16T17:39:20.470Z,2.30
2022-11-16T17:41:47.120Z,2.30
2022-11-16T17:44:20.168Z,2.37
2022-11-16T17:46:48.241Z,2.10
2022-11-16T17:49:14.798Z,2.27
2022-11-16T17:51:41.469Z,2.30
2022-11-16T17:54:08.049Z,2.40
2022-11-16T17:56:34.609Z,3.00
2022-11-16T17:59:01.182Z,2.53
2022-11-16T18:01:28.402Z,2.30
2022-11-16T18:03:55.063Z,2.63
2022-11-16T18:06:22.633Z,2.47
2022-11-16T18:08:49.330Z,2.53
2022-11-16T18:11:20.005Z,2.97
2022-11-16T18:13:47.091Z,2.53
2022-11-16T18:16:15.128Z,2.60
2022-11-16T18:18:42.048Z,2.37
2022-11-16T18:21:09.016Z,2.40
2022-11-16T18:23:36.759Z,2.50
2022-11-16T18:26:07.978Z,2.40
2022-11-16T18:28:35.385Z,2.90
2022-11-16T18:31:03.015Z,2.73
2022-11-16T18:33:30.714Z,3.00
2022-11-16T18:35:58.705Z,2.70
2022-11-16T18:38:25.327Z,2.90
2022-11-16T18:41:12.279Z,2.87
2022-11-16T18:43:44.364Z,2.90
2022-11-16T18:46:12.136Z,2.73
2022-11-16T18:48:39.675Z,2.77
2022-11-16T18:51:07.281Z,2.97
2022-11-16T18:53:34.393Z,3.00
2022-11-16T18:56:01.186Z,3.00
2022-11-16T19:01:15.468Z,2.70
2022-11-16T19:03:42.251Z,2.47
2022-11-16T19:06:09.962Z,2.40
2022-11-16T19:08:37.361Z,2.50
2022-11-16T19:11:04.914Z,2.83
2022-11-16T19:13:32.261Z,2.57
2022-11-16T19:15:59.111Z,2.10
2022-11-16T19:18:26.188Z,2.60
2022-11-16T19:20:52.995Z,2.40
2022-11-16T19:23:19.595Z,2.43
2022-11-16T19:25:46.320Z,2.10
2022-11-16T19:28:13.243Z,2.27
2022-11-16T19:30:39.844Z,2.20
2022-11-16T19:33:06.526Z,2.43
2022-11-16T19:35:33.102Z,2.13
2022-11-16T19:37:59.760Z,1.87
2022-11-16T19:40:26.367Z,2.17
2022-11-16T19:42:52.946Z,2.07
2022-11-16T19:45:19.715Z,1.83
2022-11-16T19:47:46.333Z,2.10
2022-11-16T19:50:13.038Z,1.70
2022-11-16T19:52:39.720Z,2.30
2022-11-16T19:55:06.473Z,1.83
2022-11-16T19:57:33.117Z,1.97
2022-11-16T20:00:00.254Z,2.00
2022-11-16T20:02:26.848Z,1.70
2022-11-16T20:04:53.745Z,1.87
2022-11-16T20:07:21.320Z,1.63
2022-11-16T20:09:53.066Z,1.90
2022-11-16T20:12:19.974Z,1.70
2022-11-16T20:14:46.526Z,2.10
2022-11-16T20:17:13.327Z,1.47
2022-11-16T20:19:39.975Z,1.50
2022-11-16T20:22:06.633Z,1.50
2022-11-16T20:24:33.275Z,1.60
2022-11-16T20:27:00.843Z,1.30
2022-11-16T20:29:27.468Z,1.33
2022-11-16T20:31:54.387Z,1.40
2022-11-16T20:34:22.222Z,1.27
2022-11-16T20:36:50.829Z,1.50
2022-11-16T20:39:18.897Z,1.50
2022-11-16T20:41:45.894Z,1.30
2022-11-16T20:44:22.169Z,1.27
2022-11-16T20:46:50.742Z,1.57
2022-11-16T20:49:17.372Z,1.60
2022-11-16T20:51:46.868Z,1.90
2022-11-16T20:54:13.457Z,1.80
2022-11-16T20:56:40.118Z,1.60
2022-11-16T20:59:06.907Z,1.60
2022-11-16T21:01:33.602Z,1.60
2022-11-16T21:04:04.708Z,2.00
2022-11-16T21:06:31.604Z,2.20
2022-11-16T21:08:59.328Z,2.00
2022-11-16T21:11:27.153Z,1.70
2022-11-16T21:14:12.612Z,2.00
2022-11-16T21:16:39.393Z,2.20
2022-11-16T21:19:06.399Z,1.90
2022-11-16T21:21:33.343Z,2.00
2022-11-16T21:24:00.047Z,2.10
2022-11-16T21:26:31.429Z,2.00
2022-11-16T21:28:58.949Z,2.43
2022-11-16T21:31:26.933Z,2.27
2022-11-16T21:33:54.381Z,3.67
2022-11-16T21:36:22.208Z,2.10
2022-11-16T21:38:48.972Z,2.37
2022-11-16T21:41:16.186Z,2.43
2022-11-16T21:43:42.915Z,2.60
2022-11-16T21:46:28.479Z,2.20
2022-11-16T21:48:56.821Z,2.40
2022-11-16T21:51:26.022Z,2.50
2022-11-16T21:53:52.634Z,2.47
2022-11-16T21:56:20.349Z,2.57
2022-11-16T21:58:47.166Z,2.30
2022-11-16T22:01:16.030Z,2.40
2022-11-16T22:03:43.193Z,3.00
2022-11-16T22:06:31.189Z,3.10
2022-11-16T22:08:58.130Z,3.90
2022-11-16T22:11:24.705Z,3.17
2022-11-16T22:13:51.499Z,3.47
2022-11-16T22:16:18.910Z,3.47
2022-11-16T22:18:45.559Z,2.87
2022-11-16T22:21:12.442Z,3.80
2022-11-16T22:23:39.459Z,3.53
2022-11-16T22:26:06.548Z,3.07
2022-11-16T22:28:33.602Z,3.40
2022-11-16T22:31:01.280Z,2.50
2022-11-16T22:33:28.432Z,3.17
2022-11-16T22:35:55.421Z,2.70
2022-11-16T22:38:22.099Z,2.57
2022-11-16T22:40:50.007Z,3.00
2022-11-16T22:43:16.640Z,3.10
2022-11-16T22:45:43.234Z,2.70
2022-11-16T22:48:09.846Z,2.83
2022-11-16T22:50:36.562Z,3.03
2022-11-16T22:53:03.223Z,3.00
2022-11-16T22:55:30.126Z,3.03
2022-11-16T22:57:56.792Z,2.60
2022-11-16T23:00:23.592Z,2.43
2022-11-16T23:02:51.713Z,2.33
2022-11-16T23:05:18.291Z,2.57
2022-11-16T23:07:44.884Z,3.80
2022-11-16T23:10:11.568Z,3.80
2022-11-16T23:12:56.985Z,2.60
2022-11-16T23:15:42.476Z,2.53
2022-11-16T23:18:09.081Z,2.40
2022-11-16T23:20:54.451Z,2.00
2022-11-16T23:23:39.656Z,1.80
2022-11-16T23:26:30.162Z,2.43
2022-11-16T23:28:56.788Z,2.20
2022-11-16T23:31:23.606Z,2.20
2022-11-16T23:33:50.282Z,2.00
2022-11-16T23:36:16.923Z,1.90
2022-11-16T23:38:43.751Z,1.87
2022-11-16T23:41:29.076Z,1.50
2022-11-16T23:43:58.620Z,1.47
2022-11-16T23:46:26.352Z,1.67
2022-11-16T23:48:52.909Z,1.20
2022-11-16T23:51:19.628Z,1.00
2022-11-16T23:53:46.208Z,1.00
2022-11-16T23:56:12.878Z,0.97
2022-11-16T23:58:39.468Z,1.30
